Time;durP1;ratioP1;P1;durP2;ratioP2;P2;SDS_P1;SDS_P2;PMS_P1;PMS_P2;Temp;Humidity;BMP_temperature;BMP_pressure;BME280_temperature;BME280_humidity;BME280_pressure;Samples;Min_cycle;Max_cycle;Signal;HPM_P1;HPM_P2
2021/10/01 00:00:24;;;;;;;1.40;0.60;;;17.90;99.90;;;;;;5052551;28;20025;-63
2021/10/01 00:02:50;;;;;;;1.52;0.77;;;17.80;99.90;;;;;;5052967;28;20032;-64
2021/10/01 00:05:15;;;;;;;1.15;0.57;;;17.80;99.90;;;;;;5051790;28;20025;-63
2021/10/01 00:07:41;;;;;;;1.65;0.45;;;17.80;99.90;;;;;;5052399;28;20029;-67
2021/10/01 00:10:07;;;;;;;2.13;0.70;;;17.80;99.90;;;;;;5052624;28;20025;-65
2021/10/01 00:12:33;;;;;;;1.33;0.65;;;17.80;99.90;;;;;;5050990;28;20033;-63
2021/10/01 00:14:59;;;;;;;2.08;0.80;;;17.80;99.90;;;;;;5052551;28;20542;-63
2021/10/01 00:17:25;;;;;;;2.28;0.90;;;17.80;99.90;;;;;;5052224;28;20032;-65
2021/10/01 00:19:52;;;;;;;3.17;0.90;;;17.80;99.90;;;;;;5052383;28;20388;-65
2021/10/01 00:22:18;;;;;;;1.17;0.50;;;17.80;99.90;;;;;;5052149;28;20514;-63
2021/10/01 00:24:44;;;;;;;2.40;0.65;;;17.80;99.90;;;;;;5052400;28;20051;-65
2021/10/01 00:27:12;;;;;;;1.83;0.57;;;17.80;99.90;;;;;;5052094;28;20037;-65
2021/10/01 00:29:38;;;;;;;1.55;0.63;;;17.80;99.90;;;;;;5051901;28;20029;-68
2021/10/01 00:32:04;;;;;;;3.28;0.70;;;17.80;99.90;;;;;;5052417;28;20032;-63
2021/10/01 00:34:30;;;;;;;1.73;0.50;;;17.80;99.90;;;;;;5052096;28;20021;-65
2021/10/01 00:36:56;;;;;;;1.48;0.60;;;17.80;99.90;;;;;;5052045;28;20532;-63
2021/10/01 00:39:22;;;;;;;1.60;0.60;;;17.80;99.90;;;;;;5051951;28;20121;-63
2021/10/01 00:41:48;;;;;;;1.13;0.47;;;17.80;99.90;;;;;;5051914;28;20028;-67
2021/10/01 00:44:13;;;;;;;1.67;0.60;;;17.80;99.90;;;;;;5052315;28;20031;-62
2021/10/01 00:46:39;;;;;;;0.93;0.50;;;17.80;99.90;;;;;;5051575;28;20033;-63
2021/10/01 00:49:05;;;;;;;1.27;0.60;;;17.80;99.90;;;;;;5051833;28;20021;-63
2021/10/01 00:51:33;;;;;;;1.58;0.55;;;17.80;99.90;;;;;;5051649;28;20021;-63
2021/10/01 00:53:59;;;;;;;2.35;0.80;;;17.70;99.90;;;;;;5051825;28;20021;-64
2021/10/01 00:56:25;;;;;;;1.35;0.57;;;17.80;99.90;;;;;;5051489;28;20056;-66
2021/10/01 00:58:50;;;;;;;1.90;0.60;;;17.70;99.90;;;;;;5051742;28;20025;-63
2021/10/01 01:01:16;;;;;;;1.98;0.88;;;17.80;99.90;;;;;;5051851;28;20021;-66
2021/10/01 01:04:04;;;;;;;1.58;0.60;;;17.70;99.90;;;;;;5051324;28;20032;-64
2021/10/01 01:07:03;;;;;;;1.63;0.70;;;17.70;99.90;;;;;;5051330;28;20029;-66
2021/10/01 01:09:31;;;;;;;0.82;0.47;;;17.70;99.90;;;;;;5051259;28;20021;-63
2021/10/01 01:12:16;;;;;;;2.28;0.73;;;17.70;99.90;;;;;;5051791;28;20021;-63
2021/10/01 01:15:04;;;;;;;1.42;0.57;;;17.70;99.90;;;;;;5051759;28;20028;-64
2021/10/01 01:17:43;;;;;;;1.73;0.65;;;17.70;99.90;;;;;;5051104;28;20377;-66
2021/10/01 01:20:11;;;;;;;1.73;0.70;;;17.70;99.90;;;;;;5051493;28;20021;-63
2021/10/01 01:23:32;;;;;;;1.00;0.50;;;17.70;99.90;;;;;;5051331;28;20273;-63
2021/10/01 01:26:10;;;;;;;4.22;0.90;;;17.70;99.90;;;;;;4997163;28;20049;-68
2021/10/01 01:29:09;;;;;;;2.00;0.60;;;17.70;99.90;;;;;;5050962;28;20544;-66
2021/10/01 01:31:44;;;;;;;1.25;0.63;;;17.70;99.90;;;;;;5051159;28;20040;-65
2021/10/01 01:34:17;;;;;;;1.02;0.45;;;17.70;99.90;;;;;;5051469;28;20368;-63
2021/10/01 01:36:45;;;;;;;2.00;0.50;;;17.70;99.90;;;;;;5050442;28;20035;-68
2021/10/01 01:39:12;;;;;;;1.05;0.50;;;17.70;99.90;;;;;;5051196;28;20025;-66
2021/10/01 01:41:39;;;;;;;1.80;0.60;;;17.70;99.90;;;;;;5051041;28;20040;-64
2021/10/01 01:44:06;;;;;;;1.92;0.52;;;17.70;99.90;;;;;;5051246;28;20021;-66
2021/10/01 01:46:33;;;;;;;1.52;0.52;;;17.70;99.90;;;;;;5050791;28;20041;-63
2021/10/01 01:48:59;;;;;;;2.17;0.68;;;17.70;99.90;;;;;;5051097;28;20377;-63
2021/10/01 01:51:26;;;;;;;1.58;0.68;;;17.70;99.90;;;;;;5050871;28;20029;-65
2021/10/01 01:53:52;;;;;;;2.25;0.80;;;17.70;99.90;;;;;;5051144;28;20088;-64
2021/10/01 01:56:18;;;;;;;1.80;0.70;;;17.70;99.90;;;;;;5050974;28;20018;-66
2021/10/01 01:58:46;;;;;;;1.85;0.68;;;17.70;99.90;;;;;;5051360;28;20100;-68
2021/10/01 02:01:12;;;;;;;1.48;0.63;;;17.70;99.90;;;;;;5051377;28;20111;-65
2021/10/01 02:03:39;;;;;;;1.17;0.50;;;17.60;99.90;;;;;;5050798;28;20047;-64
2021/10/01 02:06:06;;;;;;;1.55;0.77;;;17.60;99.90;;;;;;5050994;28;20488;-66
2021/10/01 02:08:34;;;;;;;1.42;0.63;;;17.60;99.90;;;;;;5049504;28;20100;-62
2021/10/01 02:11:00;;;;;;;2.15;0.57;;;17.70;99.90;;;;;;5051001;28;20022;-62
2021/10/01 02:13:27;;;;;;;0.93;0.50;;;17.70;99.90;;;;;;5050604;28;20021;-63
2021/10/01 02:15:56;;;;;;;1.27;0.50;;;17.60;99.90;;;;;;5050971;28;20024;-69
2021/10/01 02:18:25;;;;;;;1.35;0.65;;;17.70;99.90;;;;;;5050644;28;20029;-69
2021/10/01 02:20:55;;;;;;;2.00;0.77;;;17.60;99.90;;;;;;5050807;28;20013;-67
2021/10/01 02:23:22;;;;;;;1.25;0.60;;;17.60;99.90;;;;;;5050607;28;20109;-64
2021/10/01 02:28:39;;;;;;;1.08;0.60;;;17.70;99.90;;;;;;5051258;28;20040;-66
2021/10/01 02:31:13;;;;;;;1.00;0.52;;;17.60;99.90;;;;;;5054678;28;20025;-63
2021/10/01 02:33:44;;;;;;;1.02;0.55;;;17.60;99.90;;;;;;5054289;28;20103;-69
2021/10/01 02:36:10;;;;;;;2.20;0.80;;;17.60;99.90;;;;;;5054459;28;20029;-63
2021/10/01 02:38:37;;;;;;;3.00;0.82;;;17.60;99.90;;;;;;5054693;28;21190;-66
2021/10/01 02:41:03;;;;;;;1.40;0.63;;;17.60;99.90;;;;;;5054641;28;20056;-62
2021/10/01 02:43:30;;;;;;;1.02;0.60;;;17.70;99.90;;;;;;5054298;28;20048;-63
2021/10/01 02:45:55;;;;;;;1.30;0.57;;;17.60;99.90;;;;;;5054158;28;20033;-63
2021/10/01 02:48:21;;;;;;;1.55;0.60;;;17.60;99.90;;;;;;5053929;28;20111;-63
2021/10/01 02:50:51;;;;;;;1.80;0.75;;;17.60;99.90;;;;;;5054209;28;20539;-62
2021/10/01 02:53:31;;;;;;;1.40;0.70;;;17.60;99.90;;;;;;5053974;28;20028;-63
2021/10/01 02:56:17;;;;;;;1.38;0.60;;;17.60;99.90;;;;;;5054074;28;20460;-62
2021/10/01 02:58:53;;;;;;;1.02;0.68;;;17.60;99.90;;;;;;5054285;28;20492;-62
2021/10/01 03:01:22;;;;;;;2.53;0.85;;;17.60;99.90;;;;;;5053571;28;20028;-62
2021/10/01 03:03:50;;;;;;;1.20;0.50;;;17.60;99.90;;;;;;5053565;28;20108;-62
2021/10/01 03:06:20;;;;;;;1.83;0.73;;;17.60;99.90;;;;;;5052785;28;20033;-63
2021/10/01 03:08:50;;;;;;;1.48;0.80;;;17.60;99.90;;;;;;5054149;28;20017;-64
2021/10/01 03:11:17;;;;;;;1.30;0.65;;;17.60;99.90;;;;;;5054471;28;20029;-63
2021/10/01 03:13:46;;;;;;;5.38;0.70;;;17.60;99.90;;;;;;5054022;28;20531;-68
2021/10/01 03:16:13;;;;;;;1.30;0.60;;;17.60;99.90;;;;;;5054128;28;20083;-63
2021/10/01 03:18:39;;;;;;;1.63;0.70;;;17.60;99.90;;;;;;5053420;28;20049;-63
2021/10/01 03:21:05;;;;;;;1.75;0.70;;;17.60;99.90;;;;;;5053667;28;20025;-69
2021/10/01 03:23:31;;;;;;;1.27;0.60;;;17.60;99.90;;;;;;5053331;28;20029;-66
2021/10/01 03:25:57;;;;;;;1.00;0.50;;;17.60;99.90;;;;;;5053358;28;20079;-66
2021/10/01 03:28:23;;;;;;;1.85;0.80;;;17.60;99.90;;;;;;5053050;28;20427;-66
2021/10/01 03:30:49;;;;;;;2.20;0.80;;;17.50;99.90;;;;;;5053390;28;20467;-63
2021/10/01 03:33:16;;;;;;;1.35;0.68;;;17.50;99.90;;;;;;5053718;28;20029;-65
2021/10/01 03:35:43;;;;;;;1.27;0.55;;;17.60;99.90;;;;;;5053804;28;20021;-63
2021/10/01 03:38:15;;;;;;;1.48;0.50;;;17.60;99.90;;;;;;5053300;28;20051;-64
2021/10/01 03:40:43;;;;;;;1.13;0.70;;;17.50;99.90;;;;;;5052867;28;20025;-63
2021/10/01 03:43:13;;;;;;;2.08;0.82;;;17.50;99.90;;;;;;5053085;28;20020;-63
2021/10/01 03:45:40;;;;;;;1.35;0.63;;;17.50;99.90;;;;;;5052863;28;20036;-64
2021/10/01 03:48:05;;;;;;;2.17;0.60;;;17.50;99.90;;;;;;5053390;28;20044;-65
2021/10/01 03:50:36;;;;;;;2.05;0.50;;;17.60;99.90;;;;;;5053885;28;20056;-64
2021/10/01 03:53:02;;;;;;;1.45;0.75;;;17.50;99.90;;;;;;5054137;28;20032;-67
2021/10/01 03:55:28;;;;;;;1.00;0.60;;;17.50;99.90;;;;;;5052827;28;20075;-68
2021/10/01 03:57:54;;;;;;;1.90;0.60;;;17.50;99.90;;;;;;5053139;28;20030;-62
2021/10/01 04:00:21;;;;;;;3.05;0.70;;;17.50;99.90;;;;;;5052875;28;20029;-64
2021/10/01 04:02:47;;;;;;;1.23;0.60;;;17.50;99.90;;;;;;5059092;28;20036;-64
2021/10/01 04:05:16;;;;;;;1.35;0.77;;;17.50;99.90;;;;;;5059050;28;20035;-62
2021/10/01 04:07:45;;;;;;;2.47;0.57;;;17.50;99.90;;;;;;5053536;28;20115;-65
2021/10/01 04:10:12;;;;;;;1.08;0.50;;;17.50;99.90;;;;;;5072655;28;20349;-64
2021/10/01 04:12:39;;;;;;;1.33;0.60;;;17.50;99.90;;;;;;5069681;28;20361;-65
2021/10/01 04:15:06;;;;;;;1.20;0.88;;;17.50;99.90;;;;;;5063270;28;20094;-66
2021/10/01 04:17:32;;;;;;;2.33;0.60;;;17.50;99.90;;;;;;5059777;28;20115;-67
2021/10/01 04:19:58;;;;;;;4.70;0.90;;;17.50;99.90;;;;;;5068883;28;20547;-67
2021/10/01 04:22:25;;;;;;;1.10;0.70;;;17.50;99.90;;;;;;5050773;28;20500;-65
2021/10/01 04:24:50;;;;;;;1.23;0.60;;;17.50;99.90;;;;;;5052248;28;20036;-65
2021/10/01 04:27:16;;;;;;;2.15;0.90;;;17.50;99.90;;;;;;5064486;28;20036;-67
2021/10/01 04:29:43;;;;;;;2.13;0.85;;;17.50;99.90;;;;;;5066593;28;20468;-67
2021/10/01 04:32:09;;;;;;;1.98;0.70;;;17.50;99.90;;;;;;5058520;28;20083;-64
2021/10/01 04:34:50;;;;;;;1.23;0.47;;;17.50;99.90;;;;;;5051771;28;20059;-65
2021/10/01 04:37:15;;;;;;;1.45;0.68;;;17.50;99.90;;;;;;5052553;28;20025;-64
2021/10/01 04:39:41;;;;;;;1.50;0.68;;;17.50;99.90;;;;;;5052068;28;20040;-65
2021/10/01 04:42:07;;;;;;;1.33;0.75;;;17.50;99.90;;;;;;5061688;28;20484;-64
2021/10/01 04:44:32;;;;;;;1.75;0.68;;;17.40;99.90;;;;;;5068184;28;20036;-64
2021/10/01 04:46:58;;;;;;;1.70;0.70;;;17.50;99.90;;;;;;5068675;28;20101;-65
2021/10/01 04:49:24;;;;;;;1.48;0.60;;;17.40;99.90;;;;;;5058191;28;20032;-64
2021/10/01 04:51:49;;;;;;;1.25;0.50;;;17.40;99.90;;;;;;5068858;28;20032;-65
2021/10/01 04:54:15;;;;;;;1.83;0.60;;;17.40;99.90;;;;;;5063377;28;20120;-67
2021/10/01 04:56:41;;;;;;;1.40;0.55;;;17.40;99.90;;;;;;5065054;28;20029;-65
2021/10/01 04:59:06;;;;;;;2.75;0.70;;;17.50;99.90;;;;;;5050036;28;20029;-67
2021/10/01 05:01:32;;;;;;;1.65;0.70;;;17.50;99.90;;;;;;5058203;28;20419;-68
2021/10/01 05:03:58;;;;;;;1.05;0.55;;;17.50;99.90;;;;;;5052732;28;20056;-68
2021/10/01 05:06:23;;;;;;;2.05;0.70;;;17.50;99.90;;;;;;5071302;28;20025;-68
2021/10/01 05:08:49;;;;;;;0.95;0.55;;;17.50;99.90;;;;;;5065835;28;20029;-69
2021/10/01 05:11:14;;;;;;;1.88;0.70;;;17.50;99.90;;;;;;5055358;28;20070;-69
2021/10/01 05:13:40;;;;;;;2.42;0.65;;;17.60;99.90;;;;;;5058207;28;20476;-68
2021/10/01 05:16:06;;;;;;;1.58;0.57;;;17.60;99.90;;;;;;5063359;28;20176;-69
2021/10/01 05:18:31;;;;;;;1.60;0.65;;;17.60;99.90;;;;;;5050948;28;20112;-66
2021/10/01 05:21:02;;;;;;;2.25;0.77;;;17.60;99.90;;;;;;5051530;28;20040;-73
2021/10/01 05:23:29;;;;;;;1.48;0.60;;;17.60;99.90;;;;;;5055357;28;20024;-71
2021/10/01 05:25:55;;;;;;;2.50;0.75;;;17.60;99.90;;;;;;5051222;28;20072;-72
2021/10/01 05:28:20;;;;;;;1.48;0.73;;;17.60;99.90;;;;;;5060758;28;20063;-70
2021/10/01 05:30:46;;;;;;;3.40;0.75;;;17.70;99.90;;;;;;5054635;28;20095;-70
2021/10/01 05:33:13;;;;;;;1.55;0.77;;;17.60;99.90;;;;;;5059870;28;20025;-69
2021/10/01 05:35:41;;;;;;;4.22;0.70;;;17.70;99.90;;;;;;5049763;28;20091;-69
2021/10/01 05:38:07;;;;;;;3.60;1.02;;;17.70;99.90;;;;;;5061641;28;20108;-70
2021/10/01 05:40:32;;;;;;;7.00;1.17;;;17.70;99.90;;;;;;5068114;28;20067;-70
2021/10/01 05:42:58;;;;;;;3.25;0.98;;;17.70;99.90;;;;;;5068971;28;20120;-70
2021/10/01 05:45:24;;;;;;;4.32;0.77;;;17.70;99.90;;;;;;5061818;28;20048;-69
2021/10/01 05:47:49;;;;;;;3.42;1.00;;;17.70;99.90;;;;;;5054779;28;20037;-68
2021/10/01 05:50:15;;;;;;;2.30;0.90;;;17.80;99.90;;;;;;5064585;28;20373;-68
2021/10/01 05:52:51;;;;;;;2.10;0.90;;;17.80;99.90;;;;;;5067319;28;20388;-72
2021/10/01 05:55:17;;;;;;;2.83;1.17;;;17.80;99.90;;;;;;5065440;28;20025;-69
2021/10/01 05:57:44;;;;;;;2.53;1.00;;;17.80;99.90;;;;;;5071415;28;20490;-69
2021/10/01 06:00:10;;;;;;;3.25;0.70;;;17.80;99.90;;;;;;5071209;28;20032;-69
2021/10/01 06:02:36;;;;;;;2.33;0.70;;;17.80;99.90;;;;;;5069527;28;20032;-69
2021/10/01 06:05:02;;;;;;;1.67;0.75;;;17.80;99.90;;;;;;5075070;28;20025;-70
2021/10/01 06:07:28;;;;;;;3.47;1.00;;;17.80;99.90;;;;;;5058675;28;20484;-73
2021/10/01 06:09:53;;;;;;;4.90;1.13;;;17.80;99.90;;;;;;5054829;28;20028;-78
2021/10/01 06:12:19;;;;;;;2.65;0.93;;;17.80;99.90;;;;;;5063329;28;20024;-73
2021/10/01 06:14:45;;;;;;;2.53;0.70;;;17.80;99.90;;;;;;5064936;28;20035;-70
2021/10/01 06:17:12;;;;;;;2.85;1.00;;;17.80;99.90;;;;;;5054768;28;20056;-72
2021/10/01 06:19:41;;;;;;;3.35;0.93;;;17.80;99.90;;;;;;5053222;28;20044;-71
2021/10/01 06:22:07;;;;;;;1.65;0.77;;;17.80;99.90;;;;;;5060404;28;20816;-73
2021/10/01 06:24:33;;;;;;;1.52;0.90;;;17.80;99.90;;;;;;5054267;28;20029;-73
2021/10/01 06:26:59;;;;;;;2.22;0.95;;;17.80;99.90;;;;;;5054656;28;20037;-75
2021/10/01 06:29:25;;;;;;;2.28;0.90;;;17.80;99.90;;;;;;5053136;28;20472;-71
2021/10/01 06:31:51;;;;;;;1.73;0.95;;;17.80;99.90;;;;;;5054543;28;20028;-73
2021/10/01 06:34:17;;;;;;;2.53;1.20;;;17.80;99.90;;;;;;5054327;28;20388;-71
2021/10/01 06:36:43;;;;;;;2.10;0.75;;;17.80;99.90;;;;;;5055258;28;20032;-71
2021/10/01 06:39:10;;;;;;;2.53;1.20;;;17.80;99.90;;;;;;5054415;28;20029;-71
2021/10/01 06:41:36;;;;;;;2.53;1.10;;;17.80;99.90;;;;;;5054176;28;20480;-71
2021/10/01 06:44:06;;;;;;;3.60;1.17;;;17.80;99.90;;;;;;5054472;28;20064;-72
2021/10/01 08:19:56;;;;;;;2.92;1.00;;;17.60;99.90;;;;;;5052668;28;20425;-69
2021/10/01 08:22:22;;;;;;;2.60;1.10;;;17.60;99.90;;;;;;5052198;28;20021;-70
2021/10/01 08:24:48;;;;;;;2.25;0.95;;;17.60;99.90;;;;;;5052330;28;20890;-71
2021/10/01 08:27:15;;;;;;;2.50;1.00;;;17.60;99.90;;;;;;5051758;28;20028;-69
2021/10/01 08:29:40;;;;;;;3.13;0.80;;;17.60;99.90;;;;;;5052347;28;20064;-70
2021/10/01 08:32:06;;;;;;;3.50;1.20;;;17.60;99.90;;;;;;5052359;28;20577;-69
2021/10/01 08:34:36;;;;;;;2.83;0.90;;;17.60;99.90;;;;;;5050701;28;20024;-73
2021/10/01 08:37:02;;;;;;;1.88;1.00;;;17.60;99.90;;;;;;5052324;28;20029;-69
2021/10/01 08:39:28;;;;;;;2.25;0.90;;;17.60;99.90;;;;;;5052001;28;20527;-69
2021/10/01 08:41:54;;;;;;;2.92;0.90;;;17.60;99.90;;;;;;5052147;28;20032;-70
2021/10/01 08:44:19;;;;;;;3.72;0.82;;;17.60;99.90;;;;;;5051686;28;20032;-69
2021/10/01 08:46:47;;;;;;;2.75;1.15;;;17.60;99.90;;;;;;5052177;28;20045;-70
2021/10/01 08:49:14;;;;;;;2.58;0.60;;;17.60;99.90;;;;;;5052163;28;20051;-79
2021/10/01 08:51:40;;;;;;;1.98;0.95;;;17.60;99.90;;;;;;5051693;28;20037;-70
2021/10/01 08:54:07;;;;;;;2.08;0.85;;;17.60;99.90;;;;;;5051931;28;20025;-69
2021/10/01 08:56:34;;;;;;;3.38;0.80;;;17.60;99.90;;;;;;5051571;28;20111;-69
2021/10/01 08:59:00;;;;;;;2.60;0.98;;;17.60;99.90;;;;;;5051871;28;20063;-71
2021/10/01 09:01:26;;;;;;;3.33;0.95;;;17.60;99.90;;;;;;5051637;28;20029;-74
2021/10/01 09:03:52;;;;;;;3.05;0.70;;;17.60;99.90;;;;;;5051765;28;20032;-70
2021/10/01 09:06:18;;;;;;;2.55;1.00;;;17.60;99.90;;;;;;5051493;28;20029;-70
2021/10/01 09:08:56;;;;;;;2.22;0.80;;;17.60;99.90;;;;;;5051970;28;20025;-71
2021/10/01 09:11:35;;;;;;;2.03;0.90;;;17.60;99.90;;;;;;5051554;28;20111;-68
2021/10/01 09:14:10;;;;;;;1.50;0.80;;;17.70;99.90;;;;;;5051650;28;20095;-70
2021/10/01 09:16:37;;;;;;;1.88;0.85;;;17.60;99.90;;;;;;5051690;28;20028;-70
2021/10/01 09:19:05;;;;;;;1.45;1.00;;;17.60;99.90;;;;;;5051558;28;20074;-69
2021/10/01 09:21:38;;;;;;;2.65;0.93;;;17.60;99.90;;;;;;5051239;28;20021;-69
2021/10/01 09:24:05;;;;;;;;;;;17.60;99.90;;;;;;5051945;28;20029;-70
2021/10/01 09:26:33;;;;;;;3.65;1.05;;;17.60;99.90;;;;;;5051055;28;19959;-70
2021/10/01 09:29:07;;;;;;;1.38;0.63;;;17.70;99.90;;;;;;5051304;28;20381;-69
2021/10/01 09:31:45;;;;;;;1.83;0.85;;;17.70;99.90;;;;;;5051234;28;20025;-70
2021/10/01 09:34:31;;;;;;;3.00;0.90;;;17.70;99.90;;;;;;5051615;28;20056;-69
2021/10/01 09:37:21;;;;;;;1.45;0.90;;;17.70;99.90;;;;;;5051355;28;20509;-69
2021/10/01 09:39:53;;;;;;;2.95;0.95;;;17.70;99.90;;;;;;5051327;28;20056;-69
2021/10/01 09:42:27;;;;;;;2.20;0.82;;;17.70;99.90;;;;;;5049768;28;20025;-71
2021/10/01 09:45:05;;;;;;;2.67;0.70;;;17.70;99.90;;;;;;5051534;28;20029;-71
2021/10/01 09:47:33;;;;;;;2.70;0.98;;;17.70;99.90;;;;;;5050881;28;20116;-74
2021/10/01 09:50:03;;;;;;;1.58;0.82;;;17.70;99.90;;;;;;5051172;28;20021;-70
2021/10/01 09:52:45;;;;;;;1.40;0.70;;;17.70;99.90;;;;;;5051110;28;20082;-70
2021/10/01 09:55:12;;;;;;;3.08;0.70;;;17.70;99.90;;;;;;5051160;28;20022;-70
2021/10/01 09:57:39;;;;;;;2.70;0.80;;;17.70;99.90;;;;;;5049696;28;20034;-70
2021/10/01 10:00:07;;;;;;;1.70;0.70;;;17.70;99.90;;;;;;5051132;28;20025;-72
2021/10/01 10:02:38;;;;;;;2.17;0.80;;;17.70;99.90;;;;;;5050864;28;20025;-70
2021/10/01 10:05:05;;;;;;;1.15;0.70;;;17.70;99.90;;;;;;5051071;28;20025;-69
2021/10/01 10:07:38;;;;;;;3.00;0.70;;;17.70;99.90;;;;;;5050667;28;20044;-70
2021/10/01 10:10:07;;;;;;;1.43;0.80;;;17.70;99.90;;;;;;5051130;28;20025;-74
2021/10/01 10:12:32;;;;;;;1.50;0.68;;;17.70;99.90;;;;;;5050821;28;20025;-79
2021/10/01 10:14:59;;;;;;;2.28;0.80;;;17.70;99.90;;;;;;5051006;28;20021;-74
2021/10/01 10:17:27;;;;;;;1.08;0.55;;;17.80;99.90;;;;;;5050595;28;20515;-74
2021/10/01 10:19:58;;;;;;;2.45;0.80;;;17.80;99.90;;;;;;5049731;28;20445;-74
2021/10/01 10:22:26;;;;;;;2.40;0.80;;;17.80;99.90;;;;;;5050783;28;20021;-73
2021/10/01 10:24:52;;;;;;;2.03;0.70;;;17.80;99.90;;;;;;5050733;28;20029;-76
2021/10/01 10:27:19;;;;;;;3.42;0.80;;;17.80;99.90;;;;;;5050539;28;20029;-74
2021/10/01 10:29:47;;;;;;;2.72;0.80;;;17.80;99.90;;;;;;5051144;28;20107;-78
2021/10/01 10:32:15;;;;;;;1.10;0.55;;;17.80;99.90;;;;;;5051098;28;20029;-75
2021/10/01 10:34:53;;;;;;;1.52;0.60;;;17.80;99.90;;;;;;5050758;28;20028;-69
2021/10/01 10:37:21;;;;;;;2.10;0.73;;;17.80;99.90;;;;;;5050358;28;20029;-69
2021/10/01 10:39:49;;;;;;;2.70;0.90;;;17.80;99.90;;;;;;5050594;28;20096;-69
2021/10/01 10:42:33;;;;;;;1.45;0.63;;;17.80;99.90;;;;;;5049526;28;20045;-72
2021/10/01 10:45:16;;;;;;;1.77;0.70;;;17.80;99.90;;;;;;5050638;28;20053;-68
2021/10/01 10:47:57;;;;;;;1.30;0.55;;;17.80;99.90;;;;;;5050003;28;20041;-74
2021/10/01 10:50:25;;;;;;;2.15;0.80;;;17.90;99.90;;;;;;5052119;28;20032;-70
2021/10/01 10:53:13;;;;;;;1.70;0.60;;;17.90;99.90;;;;;;5052741;28;20032;-70
2021/10/01 10:55:50;;;;;;;1.40;0.40;;;17.90;99.90;;;;;;5053681;28;20028;-71
2021/10/01 10:58:22;;;;;;;1.83;0.80;;;17.90;99.90;;;;;;5054151;28;20042;-69
2021/10/01 11:00:58;;;;;;;1.20;0.50;;;17.90;99.90;;;;;;5053760;28;20492;-69
2021/10/01 11:03:28;;;;;;;3.20;0.70;;;17.90;99.90;;;;;;5052261;28;20501;-72
2021/10/01 11:06:20;;;;;;;2.00;0.82;;;17.90;99.90;;;;;;5053635;28;20024;-72
2021/10/01 11:09:08;;;;;;;3.20;0.60;;;17.90;99.90;;;;;;5053564;28;20065;-78
2021/10/01 11:11:37;;;;;;;1.10;0.50;;;17.90;99.90;;;;;;5052070;28;20021;-70
2021/10/01 11:14:15;;;;;;;2.10;0.80;;;17.90;99.90;;;;;;5053512;28;20090;-78
2021/10/01 11:16:41;;;;;;;1.73;0.70;;;17.90;99.90;;;;;;5052725;28;20108;-72
2021/10/01 11:19:09;;;;;;;1.65;0.70;;;17.90;99.90;;;;;;5053551;28;20029;-75
2021/10/01 11:21:44;;;;;;;1.55;0.60;;;17.90;99.90;;;;;;5053180;28;20037;-73
2021/10/01 11:24:21;;;;;;;2.03;0.60;;;17.90;99.90;;;;;;5053438;28;20385;-74
2021/10/01 11:26:57;;;;;;;2.42;0.50;;;18.00;99.90;;;;;;5051258;28;20041;-69
2021/10/01 11:29:31;;;;;;;1.10;0.60;;;17.90;99.90;;;;;;5032773;28;20033;-69
2021/10/01 11:31:59;;;;;;;1.60;0.68;;;18.00;99.90;;;;;;5033184;28;20057;-70
2021/10/01 11:34:42;;;;;;;1.80;0.70;;;18.00;99.90;;;;;;5033011;28;20022;-71
2021/10/01 11:37:33;;;;;;;2.28;0.85;;;18.00;99.90;;;;;;5043019;28;20033;-71
2021/10/01 11:40:09;;;;;;;2.58;0.77;;;18.00;99.90;;;;;;5050200;28;20021;-69
2021/10/01 11:42:37;;;;;;;2.13;0.73;;;18.00;99.90;;;;;;5052837;28;20029;-70
2021/10/01 11:45:15;;;;;;;1.30;0.60;;;18.00;99.90;;;;;;5053235;28;20064;-69
2021/10/01 11:47:51;;;;;;;1.50;0.80;;;18.00;99.90;;;;;;5052676;28;20037;-79
2021/10/01 11:50:16;;;;;;;2.33;0.70;;;18.00;99.90;;;;;;5053340;28;20611;-80
2021/10/01 11:52:44;;;;;;;1.60;0.80;;;18.00;99.90;;;;;;5053153;28;20120;-82
2021/10/01 11:55:12;;;;;;;1.73;0.60;;;18.00;99.90;;;;;;5052834;28;20052;-81
2021/10/01 11:57:43;;;;;;;4.70;0.90;;;18.00;99.90;;;;;;5052697;28;20033;-70
2021/10/01 12:00:12;;;;;;;2.33;0.55;;;18.00;99.90;;;;;;5052955;28;20440;-70
2021/10/01 12:02:44;;;;;;;3.33;0.98;;;18.10;99.90;;;;;;5052294;28;20021;-70
2021/10/01 12:05:33;;;;;;;1.38;0.60;;;18.10;99.90;;;;;;5052473;28;20151;-73
2021/10/01 12:08:01;;;;;;;2.50;0.85;;;18.10;99.90;;;;;;5052630;28;20029;-70
2021/10/01 12:10:29;;;;;;;2.08;0.82;;;18.10;99.90;;;;;;5052487;28;20021;-72
2021/10/01 12:13:01;;;;;;;2.72;0.88;;;18.10;99.90;;;;;;5052738;28;20055;-70
2021/10/01 12:15:34;;;;;;;2.05;0.90;;;18.10;99.90;;;;;;5052283;28;20021;-82
2021/10/01 12:18:00;;;;;;;2.13;0.90;;;18.10;99.90;;;;;;5050995;28;20029;-75
2021/10/01 12:20:25;;;;;;;1.80;0.68;;;18.10;99.90;;;;;;5052289;28;20028;-82
2021/10/01 12:22:51;;;;;;;2.92;0.90;;;18.10;99.90;;;;;;5052588;28;20059;-79
2021/10/01 12:25:25;;;;;;;2.20;0.80;;;18.10;99.90;;;;;;5052489;28;20389;-70
2021/10/01 12:27:51;;;;;;;3.08;0.82;;;18.10;99.90;;;;;;5052117;28;20051;-70
2021/10/01 12:30:16;;;;;;;2.45;0.82;;;18.10;99.90;;;;;;5052490;28;20079;-70
2021/10/01 12:32:45;;;;;;;2.35;0.60;;;18.10;99.90;;;;;;5052450;28;20032;-76
2021/10/01 12:35:11;;;;;;;3.28;0.80;;;18.10;99.90;;;;;;5052322;28;20107;-69
2021/10/01 12:37:40;;;;;;;1.15;0.70;;;18.10;99.90;;;;;;5051745;28;20043;-70
2021/10/01 12:40:07;;;;;;;1.75;0.75;;;18.10;99.90;;;;;;5050648;28;20031;-71
2021/10/01 12:42:38;;;;;;;2.05;0.75;;;18.10;99.90;;;;;;5051510;28;20063;-72
2021/10/01 12:45:07;;;;;;;1.67;0.65;;;18.10;99.90;;;;;;5051844;28;20107;-70
2021/10/01 12:47:38;;;;;;;2.50;0.70;;;18.10;99.90;;;;;;5051476;28;20086;-74
2021/10/01 12:50:27;;;;;;;2.00;0.65;;;18.20;99.90;;;;;;5051812;28;20053;-71
2021/10/01 12:53:01;;;;;;;1.83;0.80;;;18.10;99.90;;;;;;5051685;28;20061;-72
2021/10/01 12:55:32;;;;;;;2.75;0.90;;;18.20;99.90;;;;;;5051392;28;20370;-73
2021/10/01 12:57:58;;;;;;;1.85;0.75;;;18.20;99.90;;;;;;5051656;28;20033;-76
2021/10/01 13:00:29;;;;;;;2.70;0.73;;;18.20;99.90;;;;;;5051334;28;20032;-73
2021/10/01 13:03:02;;;;;;;2.35;0.70;;;18.20;99.90;;;;;;5051612;28;20143;-73
2021/10/01 13:05:40;;;;;;;2.77;0.73;;;18.20;99.90;;;;;;5051243;28;20135;-74
2021/10/01 13:08:07;;;;;;;1.70;0.68;;;18.20;99.90;;;;;;5051356;28;20104;-80
2021/10/01 13:10:47;;;;;;;1.15;0.45;;;18.20;99.90;;;;;;5051079;28;20028;-79
2021/10/01 13:13:22;;;;;;;2.55;0.73;;;18.20;99.90;;;;;;5051175;28;20504;-70
2021/10/01 13:15:53;;;;;;;2.20;0.77;;;18.20;99.90;;;;;;5051446;28;20053;-70
2021/10/01 13:18:28;;;;;;;1.30;0.60;;;18.20;99.90;;;;;;5049665;28;20025;-70
2021/10/01 13:21:12;;;;;;;1.40;0.60;;;18.20;99.90;;;;;;5051270;28;20503;-70
2021/10/01 13:23:43;;;;;;;2.42;0.60;;;18.20;99.90;;;;;;5051138;28;20021;-70
2021/10/01 13:26:25;;;;;;;1.63;0.57;;;18.20;99.90;;;;;;5051053;28;20025;-73
2021/10/01 13:29:05;;;;;;;1.73;0.82;;;18.20;99.90;;;;;;5051171;28;20087;-79
2021/10/01 13:31:42;;;;;;;2.20;0.63;;;18.20;99.90;;;;;;5050889;28;20024;-76
2021/10/01 13:34:08;;;;;;;2.08;0.60;;;18.20;99.90;;;;;;5051185;28;20025;-73
2021/10/01 13:36:34;;;;;;;1.52;0.68;;;18.30;99.90;;;;;;5050404;28;20035;-70
2021/10/01 13:39:00;;;;;;;1.98;0.77;;;18.20;99.90;;;;;;5051214;28;20071;-70
2021/10/01 13:41:26;;;;;;;2.70;0.70;;;18.30;99.90;;;;;;5050849;28;20025;-71
2021/10/01 13:43:52;;;;;;;1.75;0.70;;;18.20;99.90;;;;;;5049900;28;20029;-80
2021/10/01 13:46:20;;;;;;;2.28;0.95;;;18.30;99.90;;;;;;5050905;28;20055;-72
2021/10/01 13:48:46;;;;;;;2.28;0.80;;;18.20;99.90;;;;;;5051274;28;20065;-77
2021/10/01 13:51:12;;;;;;;1.73;0.50;;;18.30;99.90;;;;;;5051296;28;20021;-75
2021/10/01 13:53:38;;;;;;;1.88;0.77;;;18.30;99.90;;;;;;5050713;28;20520;-77
2021/10/01 13:56:04;;;;;;;2.58;0.60;;;18.30;99.90;;;;;;5050901;28;20017;-77
2021/10/01 13:58:30;;;;;;;1.27;0.60;;;18.20;99.90;;;;;;5049401;28;20033;-79
2021/10/01 14:00:55;;;;;;;1.20;0.60;;;18.20;99.90;;;;;;5050901;28;20021;-77
2021/10/01 14:03:22;;;;;;;2.22;0.70;;;18.30;99.90;;;;;;5050883;28;20083;-74
2021/10/01 14:05:49;;;;;;;1.42;0.70;;;18.30;99.90;;;;;;5051076;28;20036;-74
2021/10/01 14:08:15;;;;;;;2.05;0.85;;;18.30;99.90;;;;;;5051307;28;20029;-78
2021/10/01 14:10:42;;;;;;;2.00;0.70;;;18.30;99.90;;;;;;5051108;28;20079;-73
2021/10/01 14:13:11;;;;;;;1.65;0.57;;;18.30;99.90;;;;;;5051025;28;20029;-78
2021/10/01 14:15:40;;;;;;;1.65;0.60;;;18.30;99.90;;;;;;5050759;28;20040;-72
2021/10/01 14:18:06;;;;;;;3.20;0.85;;;18.30;99.90;;;;;;5049132;28;20017;-71
2021/10/01 14:20:33;;;;;;;2.33;0.70;;;18.30;99.90;;;;;;5049253;28;20104;-71
2021/10/01 14:22:59;;;;;;;2.55;0.70;;;18.30;99.90;;;;;;5049174;28;20021;-70
2021/10/01 14:25:26;;;;;;;2.03;0.70;;;18.30;99.90;;;;;;5050719;28;20492;-74
2021/10/01 14:27:56;;;;;;;2.13;0.60;;;18.30;99.90;;;;;;5053113;28;20385;-72
2021/10/01 14:30:24;;;;;;;2.50;0.60;;;18.30;99.90;;;;;;5053163;28;20099;-71
2021/10/01 14:32:52;;;;;;;2.22;0.70;;;18.30;99.90;;;;;;5053118;28;20025;-74
2021/10/01 14:35:18;;;;;;;2.80;0.60;;;18.30;99.90;;;;;;5052924;28;20514;-73